createdAt,value
2019-02-06T00:00:26.568Z,99.99
2019-02-06T00:01:20.602Z,99.99
2019-02-06T00:02:20.651Z,99.99
2019-02-06T00:03:20.700Z,99.99
2019-02-06T00:04:20.746Z,99.99
2019-02-06T00:05:20.796Z,99.99
2019-02-06T00:06:20.845Z,99.99
2019-02-06T00:07:20.894Z,99.99
2019-02-06T00:08:20.941Z,99.99
2019-02-06T00:09:20.989Z,99.99
2019-02-06T00:10:21.058Z,99.99
2019-02-06T00:11:21.088Z,99.99
2019-02-06T00:12:21.136Z,99.99
2019-02-06T00:13:21.185Z,99.99
2019-02-06T00:14:21.256Z,99.99
2019-02-06T00:15:21.290Z,99.99
2019-02-06T00:16:21.352Z,99.99
2019-02-06T00:17:21.392Z,99.99
2019-02-06T00:18:21.428Z,99.99
2019-02-06T00:19:21.484Z,99.99
2019-02-06T00:20:21.523Z,99.99
2019-02-06T00:21:21.576Z,99.99
2019-02-06T00:22:21.629Z,99.99
2019-02-06T00:23:21.676Z,99.99
2019-02-06T00:24:21.718Z,99.99
2019-02-06T00:25:21.768Z,99.99
2019-02-06T00:26:21.819Z,99.99
2019-02-06T00:27:21.869Z,99.99
2019-02-06T00:28:21.913Z,99.99
2019-02-06T00:29:21.961Z,99.99
2019-02-06T00:30:22.010Z,99.99
2019-02-06T00:31:22.062Z,99.99
2019-02-06T00:32:22.108Z,99.99
2019-02-06T00:33:22.157Z,99.99
2019-02-06T00:34:22.207Z,99.99
2019-02-06T00:35:25.693Z,99.99
2019-02-06T00:36:22.300Z,99.99
2019-02-06T00:37:22.349Z,99.99
2019-02-06T00:38:22.400Z,99.99
2019-02-06T00:39:22.449Z,99.99
2019-02-06T00:40:22.499Z,99.99
2019-02-06T00:41:22.546Z,99.99
2019-02-06T00:42:22.593Z,99.99
2019-02-06T00:43:22.643Z,99.99
2019-02-06T00:44:22.694Z,99.99
2019-02-06T00:45:22.738Z,99.99
2019-02-06T00:46:22.786Z,99.99
2019-02-06T00:47:22.834Z,99.99
2019-02-06T00:48:22.882Z,99.99
2019-02-06T00:49:22.930Z,99.99
2019-02-06T00:50:22.979Z,99.99
2019-02-06T00:51:23.028Z,99.99
2019-02-06T00:52:23.075Z,99.99
2019-02-06T00:53:23.125Z,99.99
2019-02-06T00:54:23.175Z,99.99
2019-02-06T00:55:23.222Z,99.99
2019-02-06T00:56:23.272Z,99.99
2019-02-06T00:57:23.334Z,99.99
2019-02-06T00:58:23.366Z,99.99
2019-02-06T00:59:23.418Z,99.99
2019-02-06T01:00:23.463Z,99.99
2019-02-06T01:01:23.512Z,99.99
2019-02-06T01:02:23.562Z,99.99
2019-02-06T01:03:23.611Z,99.99
2019-02-06T01:04:23.655Z,99.99
2019-02-06T01:05:23.705Z,99.99
2019-02-06T01:06:23.754Z,99.99
2019-02-06T01:07:23.807Z,99.99
2019-02-06T01:08:23.848Z,99.99
2019-02-06T01:09:23.901Z,99.99
2019-02-06T01:10:23.945Z,99.99
2019-02-06T01:11:23.994Z,99.99
2019-02-06T01:12:24.041Z,99.99
2019-02-06T01:13:24.090Z,99.99
2019-02-06T01:14:24.139Z,99.99
2019-02-06T01:15:24.188Z,99.99
2019-02-06T01:16:24.236Z,99.99
2019-02-06T01:17:25.900Z,99.99
2019-02-06T01:18:24.332Z,99.99
2019-02-06T01:19:24.478Z,99.99
2019-02-06T01:20:24.429Z,99.99
2019-02-06T01:21:24.501Z,99.99
2019-02-06T01:22:24.524Z,99.99
2019-02-06T01:23:24.572Z,99.99
2019-02-06T01:24:24.628Z,99.99
2019-02-06T01:25:24.669Z,99.99
2019-02-06T01:26:24.760Z,99.99
2019-02-06T01:27:24.766Z,99.99
2019-02-06T01:28:24.813Z,99.99
2019-02-06T01:29:24.865Z,99.99
2019-02-06T01:30:24.915Z,99.99
2019-02-06T01:31:24.960Z,99.99
2019-02-06T01:32:25.006Z,99.99
2019-02-06T01:33:25.054Z,99.99
2019-02-06T01:34:25.103Z,99.99
2019-02-06T01:35:25.152Z,99.99
2019-02-06T01:36:25.199Z,99.99
2019-02-06T01:37:25.247Z,99.99
2019-02-06T01:38:25.296Z,99.99
2019-02-06T01:39:25.345Z,99.99
2019-02-06T01:40:25.390Z,99.99
2019-02-06T01:41:25.440Z,99.99
2019-02-06T01:42:25.488Z,99.99
2019-02-06T01:43:25.537Z,99.99
2019-02-06T01:44:25.584Z,99.99
2019-02-06T01:45:25.632Z,99.99
2019-02-06T01:46:25.680Z,99.99
2019-02-06T01:47:25.730Z,99.99
2019-02-06T01:48:25.777Z,99.99
2019-02-06T01:49:25.824Z,99.99
2019-02-06T01:50:25.872Z,99.99
2019-02-06T01:51:25.921Z,99.99
2019-02-06T01:52:25.969Z,99.99
2019-02-06T01:53:26.016Z,99.99
2019-02-06T01:54:26.068Z,99.99
2019-02-06T01:55:26.630Z,99.99
2019-02-06T01:56:26.816Z,99.99
2019-02-06T01:57:26.785Z,99.99
2019-02-06T01:58:26.257Z,99.99
2019-02-06T01:59:26.306Z,99.99
2019-02-06T02:00:26.352Z,99.99
2019-02-06T02:01:26.401Z,99.99
2019-02-06T02:02:26.449Z,99.99
2019-02-06T02:03:26.499Z,99.99
2019-02-06T02:04:26.546Z,99.99
2019-02-06T02:05:26.595Z,99.99
2019-02-06T02:06:26.643Z,99.99
2019-02-06T02:07:26.698Z,99.99
2019-02-06T02:08:26.738Z,99.99
2019-02-06T02:09:26.786Z,99.99
2019-02-06T02:10:26.835Z,99.99
2019-02-06T02:11:26.883Z,99.99
2019-02-06T02:12:26.932Z,99.99
2019-02-06T02:13:26.979Z,99.99
2019-02-06T02:14:27.026Z,99.99
2019-02-06T02:15:27.078Z,99.99
2019-02-06T02:16:27.123Z,99.99
2019-02-06T02:17:27.171Z,99.99
2019-02-06T02:18:27.218Z,99.99
2019-02-06T02:19:27.266Z,99.99
2019-02-06T02:20:27.315Z,99.99
2019-02-06T02:21:27.365Z,99.99
2019-02-06T02:22:27.412Z,99.99
2019-02-06T02:23:27.461Z,99.99
2019-02-06T02:24:27.508Z,99.99
2019-02-06T02:25:27.556Z,99.99
2019-02-06T02:26:27.604Z,99.99
2019-02-06T02:27:27.653Z,99.99
2019-02-06T02:28:27.716Z,99.99
2019-02-06T02:29:27.752Z,99.99
2019-02-06T02:30:27.796Z,99.99
2019-02-06T02:31:27.845Z,99.99
2019-02-06T02:32:27.894Z,99.99
2019-02-06T02:33:27.941Z,99.99
2019-02-06T02:34:28.003Z,99.99
2019-02-06T02:35:28.041Z,99.99
2019-02-06T02:36:28.089Z,99.99
2019-02-06T02:37:28.147Z,99.99
2019-02-06T02:38:28.179Z,99.99
2019-02-06T02:39:28.227Z,99.99
2019-02-06T02:40:28.285Z,99.99
2019-02-06T02:41:28.323Z,99.99
2019-02-06T02:42:28.372Z,99.99
2019-02-06T02:43:28.421Z,99.99
2019-02-06T02:44:28.466Z,99.99
2019-02-06T02:45:28.515Z,99.99
2019-02-06T02:46:28.647Z,99.99
2019-02-06T02:47:28.612Z,99.99
2019-02-06T02:48:28.661Z,99.99
2019-02-06T02:49:28.707Z,99.99
2019-02-06T02:50:28.755Z,99.99
2019-02-06T02:51:28.802Z,99.99
2019-02-06T02:52:28.851Z,99.99
2019-02-06T02:53:28.900Z,99.99
2019-02-06T02:54:28.946Z,99.99
2019-02-06T02:55:29.197Z,99.99
2019-02-06T02:56:29.043Z,99.99
2019-02-06T02:57:29.091Z,99.99
2019-02-06T02:58:29.139Z,99.99
2019-02-06T02:59:29.186Z,99.99
2019-02-06T03:00:29.235Z,99.99
2019-02-06T03:01:29.282Z,99.99
2019-02-06T03:02:29.329Z,99.99
2019-02-06T03:03:29.378Z,99.99
2019-02-06T03:04:29.426Z,99.99
2019-02-06T03:05:29.474Z,99.99
2019-02-06T03:06:29.522Z,99.99
2019-02-06T03:07:29.573Z,99.99
2019-02-06T03:08:29.619Z,99.99
2019-02-06T03:09:29.669Z,99.99
2019-02-06T03:10:29.712Z,99.99
2019-02-06T03:11:29.761Z,99.99
2019-02-06T03:12:29.809Z,99.99
2019-02-06T03:13:29.873Z,99.99
2019-02-06T03:14:29.905Z,99.99
2019-02-06T03:15:29.953Z,99.99
2019-02-06T03:16:30.001Z,99.99
2019-02-06T03:17:30.051Z,99.99
2019-02-06T03:18:30.096Z,99.99
2019-02-06T03:19:30.143Z,99.99
2019-02-06T03:20:30.190Z,99.99
2019-02-06T03:21:30.240Z,99.99
2019-02-06T03:22:32.920Z,99.99
2019-02-06T03:23:30.335Z,99.99
2019-02-06T03:24:30.384Z,99.99
2019-02-06T03:25:30.492Z,99.99
2019-02-06T03:26:30.477Z,99.99
2019-02-06T03:27:30.527Z,99.99
2019-02-06T03:28:30.577Z,99.99
2019-02-06T03:29:30.621Z,99.99
2019-02-06T03:30:30.671Z,99.99
2019-02-06T03:31:30.718Z,99.99
2019-02-06T03:32:30.767Z,99.99
2019-02-06T03:33:31.065Z,99.99
2019-02-06T03:34:30.861Z,99.99
2019-02-06T03:35:30.908Z,99.99
2019-02-06T03:36:39.783Z,99.99
2019-02-06T03:37:31.003Z,99.99
2019-02-06T03:38:31.053Z,99.99
2019-02-06T03:39:31.100Z,99.99
2019-02-06T03:40:31.150Z,99.99
2019-02-06T03:41:31.196Z,99.99
2019-02-06T03:42:31.244Z,99.99
2019-02-06T03:43:31.292Z,99.99
2019-02-06T03:44:31.340Z,99.99
2019-02-06T03:45:31.391Z,99.99
2019-02-06T03:46:31.436Z,99.99
2019-02-06T03:47:31.485Z,99.99
2019-02-06T03:48:31.530Z,99.99
2019-02-06T03:49:31.582Z,99.99
2019-02-06T03:50:31.627Z,99.99
2019-02-06T03:51:31.675Z,99.99
2019-02-06T03:52:31.724Z,99.99
2019-02-06T03:53:31.775Z,99.99
2019-02-06T03:54:31.820Z,99.99
2019-02-06T03:55:31.869Z,99.99
2019-02-06T03:56:31.926Z,99.99
2019-02-06T03:57:31.964Z,99.99
2019-02-06T03:58:32.012Z,99.99
2019-02-06T03:59:32.060Z,99.99
2019-02-06T04:00:32.117Z,99.99
2019-02-06T04:01:32.157Z,99.99
2019-02-06T04:02:32.205Z,99.99
2019-02-06T04:03:32.254Z,99.99
2019-02-06T04:04:32.303Z,99.99
2019-02-06T04:05:32.349Z,99.99
2019-02-06T04:06:32.399Z,99.99
2019-02-06T04:07:32.446Z,99.99
2019-02-06T04:08:32.494Z,99.99
2019-02-06T04:09:32.542Z,99.99
2019-02-06T04:10:32.596Z,99.99
2019-02-06T04:11:32.639Z,99.99
2019-02-06T04:12:32.686Z,99.99
2019-02-06T04:13:32.733Z,99.99
2019-02-06T04:14:32.804Z,99.99
2019-02-06T04:15:32.834Z,99.99
2019-02-06T04:16:32.880Z,99.99
2019-02-06T04:17:32.926Z,99.99
2019-02-06T04:18:32.984Z,99.99
2019-02-06T04:19:33.023Z,99.99
2019-02-06T04:20:33.075Z,99.99
2019-02-06T04:21:33.119Z,99.99
2019-02-06T04:22:33.167Z,99.99
2019-02-06T04:23:33.218Z,99.99
2019-02-06T04:24:33.264Z,99.99
2019-02-06T04:25:33.312Z,99.99
2019-02-06T04:26:33.370Z,99.99
2019-02-06T04:27:33.414Z,99.99
2019-02-06T04:28:33.457Z,99.99
2019-02-06T04:29:33.506Z,99.99
2019-02-06T04:30:33.552Z,99.99
2019-02-06T04:31:33.601Z,99.99
2019-02-06T04:32:33.657Z,99.99
2019-02-06T04:33:33.697Z,99.99
2019-02-06T04:34:33.748Z,99.99
2019-02-06T04:35:33.792Z,99.99
2019-02-06T04:36:33.841Z,99.99
2019-02-06T04:37:33.888Z,99.99
2019-02-06T04:38:33.937Z,99.99
2019-02-06T04:39:33.984Z,99.99
2019-02-06T04:40:34.033Z,99.99
2019-02-06T04:41:34.080Z,99.99
2019-02-06T04:42:34.128Z,99.99
2019-02-06T04:43:34.177Z,99.99
2019-02-06T04:44:34.226Z,99.99
2019-02-06T04:45:34.272Z,99.99
2019-02-06T04:46:34.322Z,99.99
2019-02-06T04:47:34.373Z,99.99
2019-02-06T04:48:34.573Z,99.99
2019-02-06T04:49:34.466Z,99.99
2019-02-06T04:50:34.512Z,99.99
2019-02-06T04:51:34.560Z,99.99
2019-02-06T04:52:34.607Z,99.99
2019-02-06T04:53:34.653Z,99.99
2019-02-06T04:54:34.703Z,99.99
2019-02-06T04:55:34.752Z,99.99
2019-02-06T04:56:34.797Z,99.99
2019-02-06T04:57:34.845Z,99.99
2019-02-06T04:58:35.225Z,99.99
2019-02-06T04:59:34.941Z,99.99
2019-02-06T05:00:35.014Z,99.99
2019-02-06T05:01:35.036Z,99.99
2019-02-06T05:02:35.086Z,99.99
2019-02-06T05:03:35.176Z,99.99
2019-02-06T05:04:35.190Z,99.99
2019-02-06T05:05:35.227Z,99.99
2019-02-06T05:06:35.284Z,99.99
2019-02-06T05:07:35.323Z,99.99
2019-02-06T05:08:35.370Z,99.99
2019-02-06T05:09:35.416Z,99.99
2019-02-06T05:10:35.477Z,99.99
2019-02-06T05:11:35.512Z,99.99
2019-02-06T05:12:35.560Z,99.99
2019-02-06T05:13:35.612Z,99.99
2019-02-06T05:14:35.654Z,99.99
2019-02-06T05:15:35.704Z,99.99
2019-02-06T05:16:35.750Z,99.99
2019-02-06T05:17:35.797Z,99.99
2019-02-06T05:18:35.849Z,99.99
2019-02-06T05:19:35.892Z,99.99
2019-02-06T05:20:35.954Z,99.99
2019-02-06T05:21:35.987Z,99.99
2019-02-06T05:22:36.035Z,99.99
2019-02-06T05:23:36.082Z,99.99
2019-02-06T05:24:36.134Z,99.99
2019-02-06T05:25:36.177Z,99.99
2019-02-06T05:26:36.227Z,99.99
2019-02-06T05:27:36.274Z,99.99
2019-02-06T05:28:36.320Z,99.99
2019-02-06T05:29:36.368Z,99.99
2019-02-06T05:30:36.417Z,99.99
2019-02-06T05:31:36.469Z,99.99
2019-02-06T05:32:36.517Z,99.99
2019-02-06T05:33:36.558Z,99.99
2019-02-06T05:34:36.607Z,99.99
2019-02-06T05:35:36.654Z,99.99
2019-02-06T05:36:36.701Z,99.99
2019-02-06T05:37:36.756Z,99.99
2019-02-06T05:38:36.800Z,99.99
2019-02-06T05:39:36.846Z,99.99
2019-02-06T05:40:36.896Z,99.99
2019-02-06T05:41:36.941Z,99.99
2019-02-06T05:42:36.988Z,99.99
2019-02-06T05:43:37.037Z,99.99
2019-02-06T05:44:37.084Z,99.99
2019-02-06T05:45:37.131Z,99.99
2019-02-06T05:46:37.179Z,99.99
2019-02-06T05:47:37.229Z,99.99
2019-02-06T05:48:37.276Z,99.99
2019-02-06T05:49:37.322Z,99.99
2019-02-06T05:50:37.381Z,99.99
2019-02-06T05:51:37.604Z,99.99
2019-02-06T05:52:37.464Z,99.99
2019-02-06T05:53:37.511Z,99.99
2019-02-06T05:54:37.560Z,99.99
2019-02-06T05:55:37.607Z,99.99
2019-02-06T05:56:37.656Z,99.99
2019-02-06T05:57:37.708Z,99.99
2019-02-06T05:58:37.753Z,99.99
2019-02-06T05:59:37.798Z,99.99
2019-02-06T06:00:37.845Z,99.99
2019-02-06T06:01:37.900Z,99.99
2019-02-06T06:02:37.939Z,99.99
2019-02-06T06:03:37.991Z,99.99
2019-02-06T06:04:38.036Z,99.99
2019-02-06T06:05:38.082Z,99.99
2019-02-06T06:06:38.130Z,99.99
2019-02-06T06:07:45.258Z,99.99
2019-02-06T06:08:38.227Z,99.99
2019-02-06T06:09:38.275Z,99.99
2019-02-06T06:10:38.320Z,99.99
2019-02-06T06:11:38.370Z,99.99
2019-02-06T06:12:38.432Z,99.99
2019-02-06T06:13:38.464Z,99.99
2019-02-06T06:14:38.512Z,99.99
2019-02-06T06:15:38.559Z,99.99
2019-02-06T06:16:38.647Z,99.99
2019-02-06T06:17:38.677Z,99.99
2019-02-06T06:18:38.739Z,99.99
2019-02-06T06:19:38.812Z,99.99
2019-02-06T06:20:38.795Z,99.99
2019-02-06T06:21:38.841Z,99.99
2019-02-06T06:22:38.893Z,99.99
2019-02-06T06:23:38.937Z,99.99
2019-02-06T06:24:38.983Z,99.99
2019-02-06T06:25:39.039Z,99.99
2019-02-06T06:26:39.081Z,99.99
2019-02-06T06:27:39.128Z,99.99
2019-02-06T06:28:39.174Z,99.99
2019-02-06T06:29:39.260Z,99.99
2019-02-06T06:30:39.271Z,99.99
2019-02-06T06:31:39.318Z,99.99
2019-02-06T06:32:39.365Z,99.99
2019-02-06T06:33:39.412Z,99.99
2019-02-06T06:34:39.467Z,99.99
2019-02-06T06:35:39.510Z,99.99
2019-02-06T06:36:39.555Z,99.99
2019-02-06T06:37:41.502Z,99.99
2019-02-06T06:38:39.648Z,99.99
2019-02-06T06:39:39.698Z,99.99
2019-02-06T06:40:39.747Z,99.99
2019-02-06T06:41:39.792Z,99.99
2019-02-06T06:42:39.838Z,99.99
2019-02-06T06:43:39.885Z,99.99
2019-02-06T06:44:39.933Z,99.99
2019-02-06T06:45:39.979Z,99.99
2019-02-06T06:46:40.029Z,99.99
2019-02-06T06:47:40.080Z,99.99
2019-02-06T06:48:40.122Z,99.99
2019-02-06T06:49:40.172Z,99.99
2019-02-06T06:50:40.218Z,99.99
2019-02-06T06:51:40.265Z,99.99
2019-02-06T06:52:40.312Z,99.99
2019-02-06T06:53:40.359Z,99.99
2019-02-06T06:54:40.406Z,99.99
2019-02-06T06:55:40.458Z,99.99
2019-02-06T06:56:40.500Z,99.99
2019-02-06T06:57:41.019Z,99.99
2019-02-06T06:58:40.599Z,99.99
2019-02-06T06:59:40.643Z,99.99
2019-02-06T07:00:40.692Z,99.99
2019-02-06T07:01:40.736Z,99.99
2019-02-06T07:02:40.786Z,99.99
2019-02-06T07:03:40.833Z,99.99
2019-02-06T07:04:40.879Z,99.99
2019-02-06T07:05:40.934Z,99.99
2019-02-06T07:06:40.974Z,99.99
2019-02-06T07:07:41.021Z,99.99
2019-02-06T07:08:41.067Z,99.99
2019-02-06T07:09:41.115Z,99.99
2019-02-06T07:10:41.163Z,99.99
2019-02-06T07:11:41.291Z,99.99
2019-02-06T07:12:41.257Z,99.99
2019-02-06T07:13:41.304Z,99.99
2019-02-06T07:14:41.351Z,99.99
2019-02-06T07:15:41.399Z,99.99
2019-02-06T07:16:41.445Z,99.99
2019-02-06T07:17:41.494Z,99.99
2019-02-06T07:18:41.542Z,99.99
2019-02-06T07:19:41.589Z,99.99
2019-02-06T07:20:41.635Z,99.99
2019-02-06T07:21:41.683Z,99.99
2019-02-06T07:22:41.730Z,99.99
2019-02-06T07:23:41.778Z,99.99
2019-02-06T07:24:41.823Z,99.99
2019-02-06T07:25:41.872Z,99.99
2019-02-06T07:26:41.919Z,99.99
2019-02-06T07:27:41.967Z,99.99
2019-02-06T07:28:42.012Z,99.99
2019-02-06T07:29:42.061Z,99.99
2019-02-06T07:30:42.108Z,99.99
2019-02-06T07:31:42.157Z,99.99
2019-02-06T07:32:42.205Z,99.99
2019-02-06T07:33:42.250Z,99.99
2019-02-06T07:34:42.298Z,99.99
2019-02-06T07:35:42.347Z,99.99
2019-02-06T07:36:42.392Z,99.99
2019-02-06T07:37:42.446Z,99.99
2019-02-06T07:38:42.487Z,99.99
2019-02-06T07:39:42.534Z,99.99
2019-02-06T07:40:42.584Z,99.99
2019-02-06T07:41:42.629Z,99.99
2019-02-06T07:42:42.677Z,99.99
2019-02-06T07:43:42.725Z,99.99
2019-02-06T07:44:42.771Z,99.99
2019-02-06T07:45:42.818Z,99.99
2019-02-06T07:46:42.869Z,99.99
2019-02-06T07:47:42.965Z,99.99
2019-02-06T07:48:42.960Z,99.99
2019-02-06T07:49:43.009Z,99.99
2019-02-06T07:50:43.062Z,99.99
2019-02-06T07:51:43.103Z,99.99
2019-02-06T07:52:43.150Z,99.99
2019-02-06T07:53:43.199Z,99.99
2019-02-06T07:54:43.249Z,99.99
2019-02-06T07:55:43.293Z,99.99
2019-02-06T07:56:43.342Z,99.99
2019-02-06T07:57:43.389Z,99.99
2019-02-06T07:58:43.437Z,99.99
2019-02-06T07:59:43.485Z,99.99
2019-02-06T08:00:43.533Z,99.99
2019-02-06T08:01:43.580Z,99.99
2019-02-06T08:02:43.630Z,99.99
2019-02-06T08:03:43.703Z,99.99
2019-02-06T08:04:43.725Z,99.99
2019-02-06T08:05:43.769Z,99.99
2019-02-06T08:06:43.828Z,99.99
2019-02-06T08:07:43.868Z,99.99
2019-02-06T08:08:43.913Z,99.99
2019-02-06T08:09:43.962Z,99.99
2019-02-06T08:10:44.010Z,99.99
2019-02-06T08:11:44.058Z,99.99
2019-02-06T08:12:44.239Z,99.99
2019-02-06T08:13:44.153Z,99.99
2019-02-06T08:14:44.201Z,99.99
2019-02-06T08:15:44.930Z,99.99
2019-02-06T08:16:44.296Z,99.99
2019-02-06T08:17:44.717Z,99.99
2019-02-06T08:18:44.394Z,99.99
2019-02-06T08:19:44.442Z,99.99
2019-02-06T08:20:44.489Z,99.99
2019-02-06T08:21:44.537Z,99.99
2019-02-06T08:22:44.586Z,99.99
2019-02-06T08:23:44.636Z,99.99
2019-02-06T08:24:44.683Z,99.99
2019-02-06T08:25:44.732Z,99.99
2019-02-06T08:26:44.782Z,99.99
2019-02-06T08:27:44.828Z,99.99
2019-02-06T08:28:44.878Z,99.99
2019-02-06T08:29:44.923Z,99.99
2019-02-06T08:30:44.973Z,99.99
2019-02-06T08:31:45.023Z,99.99
2019-02-06T08:32:45.070Z,99.99
2019-02-06T08:33:45.122Z,99.99
2019-02-06T08:34:45.170Z,99.99
2019-02-06T08:35:45.217Z,99.99
2019-02-06T08:36:45.264Z,99.99
2019-02-06T08:37:45.314Z,99.99
2019-02-06T08:38:48.236Z,99.99
2019-02-06T08:39:45.413Z,99.99
2019-02-06T08:40:45.459Z,99.99
2019-02-06T08:41:45.508Z,99.99
2019-02-06T08:42:45.558Z,99.99
2019-02-06T08:43:45.607Z,99.99
2019-02-06T08:44:45.654Z,99.99
2019-02-06T08:45:45.704Z,99.99
2019-02-06T08:46:45.754Z,99.99
2019-02-06T08:47:45.803Z,99.99
2019-02-06T08:48:45.853Z,99.99
2019-02-06T08:49:46.199Z,99.99
2019-02-06T08:50:45.950Z,99.99
2019-02-06T08:51:46.000Z,99.99
2019-02-06T08:52:46.049Z,99.99
2019-02-06T08:53:46.098Z,99.99
2019-02-06T08:54:46.148Z,99.99
2019-02-06T08:55:46.200Z,99.99
2019-02-06T08:56:46.246Z,99.99
2019-02-06T08:57:46.295Z,99.99
2019-02-06T08:58:46.346Z,99.99
2019-02-06T08:59:46.397Z,99.99
2019-02-06T09:00:46.446Z,99.99
2019-02-06T09:01:46.496Z,99.99
2019-02-06T09:02:46.544Z,99.99
2019-02-06T09:03:46.594Z,99.99
2019-02-06T09:04:55.617Z,99.99
2019-02-06T09:05:46.693Z,99.99
2019-02-06T09:06:46.744Z,99.99
2019-02-06T09:07:46.803Z,99.99
2019-02-06T09:08:46.842Z,99.99
2019-02-06T09:09:46.894Z,99.99
2019-02-06T09:10:46.945Z,99.99
2019-02-06T09:11:46.993Z,99.99
2019-02-06T09:12:47.043Z,99.99
2019-02-06T09:13:47.128Z,99.99
2019-02-06T09:14:47.145Z,99.99
2019-02-06T09:15:47.196Z,99.99
2019-02-06T09:16:47.245Z,99.99
2019-02-06T09:17:47.302Z,99.99
2019-02-06T09:18:47.343Z,99.99
2019-02-06T09:19:47.394Z,99.99
2019-02-06T09:20:47.448Z,99.99
2019-02-06T09:21:47.494Z,99.99
2019-02-06T09:22:47.549Z,99.99
2019-02-06T09:23:47.595Z,99.99
2019-02-06T09:24:47.644Z,99.99
2019-02-06T09:25:47.695Z,99.99
2019-02-06T09:26:47.748Z,99.99
2019-02-06T09:27:47.799Z,99.99
2019-02-06T09:28:47.847Z,99.99
2019-02-06T09:29:47.897Z,99.99
2019-02-06T09:30:47.949Z,99.99
2019-02-06T09:31:48.002Z,99.99
2019-02-06T09:32:48.049Z,99.99
2019-02-06T09:33:48.099Z,99.99
2019-02-06T09:34:48.150Z,99.99
2019-02-06T09:35:48.200Z,99.99
2019-02-06T09:36:48.251Z,99.99
2019-02-06T09:37:48.301Z,99.99
2019-02-06T09:38:48.351Z,99.99
2019-02-06T09:39:48.403Z,99.99
2019-02-06T09:40:49.466Z,99.99
2019-02-06T09:41:48.502Z,99.99
2019-02-06T09:42:48.554Z,99.99
2019-02-06T09:43:48.604Z,99.99
2019-02-06T09:44:48.661Z,99.99
2019-02-06T09:45:48.705Z,99.99
2019-02-06T09:46:48.776Z,99.99
2019-02-06T09:47:48.813Z,99.99
2019-02-06T09:48:48.858Z,99.99
2019-02-06T09:49:49.881Z,99.99
2019-02-06T09:50:48.959Z,99.99
2019-02-06T09:51:49.010Z,99.99
2019-02-06T09:52:49.060Z,99.99
2019-02-06T09:53:49.110Z,99.99
2019-02-06T09:54:49.163Z,99.99
2019-02-06T09:55:49.214Z,99.99
2019-02-06T09:56:50.734Z,99.99
2019-02-06T09:57:49.312Z,99.99
2019-02-06T09:58:49.363Z,99.99
2019-02-06T09:59:49.416Z,99.99
2019-02-06T10:00:49.468Z,99.99
2019-02-06T10:01:49.516Z,99.99
2019-02-06T10:02:49.577Z,99.99
2019-02-06T10:03:49.618Z,99.99
2019-02-06T10:04:49.667Z,99.99
2019-02-06T10:05:49.719Z,99.99
2019-02-06T10:06:49.770Z,99.99
2019-02-06T10:07:49.821Z,99.99
2019-02-06T10:08:49.872Z,99.99
2019-02-06T10:09:49.924Z,99.99
2019-02-06T10:10:49.981Z,99.99
2019-02-06T10:11:50.025Z,99.99
2019-02-06T10:12:50.075Z,99.99
2019-02-06T10:13:50.127Z,99.99
2019-02-06T10:14:50.178Z,99.99
2019-02-06T10:15:50.264Z,99.99
2019-02-06T10:16:50.281Z,99.99
2019-02-06T10:17:50.333Z,99.99
2019-02-06T10:18:50.384Z,99.99
2019-02-06T10:19:50.440Z,99.99
2019-02-06T10:20:50.487Z,99.99
2019-02-06T10:21:53.575Z,99.99
2019-02-06T10:22:50.587Z,99.99
2019-02-06T10:23:50.638Z,99.99
2019-02-06T10:24:50.689Z,99.99
2019-02-06T10:25:53.620Z,99.99
2019-02-06T10:26:51.068Z,99.99
2019-02-06T10:27:50.851Z,99.99
2019-02-06T10:28:50.902Z,99.99
2019-02-06T10:29:50.945Z,99.99
2019-02-06T10:30:50.998Z,99.99
2019-02-06T10:31:51.079Z,99.99
2019-02-06T10:32:51.142Z,99.99
2019-02-06T10:33:51.188Z,99.99
2019-02-06T10:34:51.256Z,99.99
2019-02-06T10:35:52.389Z,99.99
2019-02-06T10:36:51.327Z,99.99
2019-02-06T10:37:51.358Z,99.99
2019-02-06T10:38:51.408Z,99.99
2019-02-06T10:39:51.516Z,99.99
2019-02-06T10:40:51.918Z,99.99
2019-02-06T10:41:51.670Z,99.99
2019-02-06T10:42:51.663Z,99.99
2019-02-06T10:43:51.717Z,99.99
2019-02-06T10:44:51.759Z,99.99
2019-02-06T10:45:51.817Z,99.99
2019-02-06T10:46:51.975Z,99.99
2019-02-06T10:47:52.321Z,99.99
2019-02-06T10:48:51.978Z,99.99
2019-02-06T10:49:52.373Z,99.99
2019-02-06T10:50:52.082Z,99.99
2019-02-06T10:51:52.613Z,99.99
2019-02-06T10:52:52.131Z,99.99
2019-02-06T10:53:52.182Z,99.99
2019-02-06T10:54:52.234Z,99.99
2019-02-06T10:55:52.344Z,99.99
2019-02-06T10:56:52.382Z,99.99
2019-02-06T10:57:52.482Z,99.99
2019-02-06T10:58:52.507Z,99.99
2019-02-06T10:59:52.591Z,99.99
2019-02-06T11:00:52.592Z,99.99
2019-02-06T11:01:52.638Z,99.99
2019-02-06T11:02:52.682Z,99.99
2019-02-06T11:03:53.085Z,99.99
2019-02-06T11:04:52.798Z,99.99
2019-02-06T11:05:52.852Z,99.99
2019-02-06T11:06:52.853Z,99.99
2019-02-06T11:07:52.943Z,99.99
2019-02-06T11:08:53.007Z,99.99
2019-02-06T11:09:53.063Z,99.99
2019-02-06T11:10:53.099Z,99.99
2019-02-06T11:11:53.156Z,99.99
2019-02-06T11:12:53.257Z,99.99
2019-02-06T11:14:53.272Z,99.99
2019-02-06T11:15:53.320Z,99.99
2019-02-06T11:16:53.372Z,99.99
2019-02-06T11:17:53.422Z,99.99
2019-02-06T11:18:53.476Z,99.99
2019-02-06T11:19:53.529Z,99.99
2019-02-06T11:20:53.580Z,99.99
2019-02-06T11:21:53.632Z,99.99
2019-02-06T11:22:53.684Z,99.99
2019-02-06T11:23:53.737Z,99.99
2019-02-06T11:24:53.788Z,99.99
2019-02-06T11:25:53.840Z,99.99
2019-02-06T11:26:53.893Z,99.99
2019-02-06T11:27:53.946Z,99.99
2019-02-06T11:28:53.996Z,99.99
2019-02-06T11:29:54.049Z,99.99
2019-02-06T11:30:56.986Z,99.99
2019-02-06T11:31:54.155Z,99.99
2019-02-06T11:32:54.206Z,99.99
2019-02-06T11:33:54.260Z,99.99
2019-02-06T11:34:54.312Z,99.99
2019-02-06T11:35:54.920Z,99.99
2019-02-06T11:36:54.416Z,99.99
2019-02-06T11:37:54.470Z,99.99
2019-02-06T11:38:54.521Z,99.99
2019-02-06T11:39:58.100Z,99.99
2019-02-06T11:40:54.628Z,99.99
2019-02-06T11:41:54.681Z,99.99
2019-02-06T11:42:55.351Z,99.99
2019-02-06T11:43:54.787Z,99.99
2019-02-06T11:44:54.839Z,99.99
2019-02-06T11:45:54.892Z,99.99
2019-02-06T11:46:54.945Z,99.99
2019-02-06T11:47:54.999Z,99.99
2019-02-06T11:48:55.065Z,99.99
2019-02-06T11:49:55.108Z,99.99
2019-02-06T11:50:55.159Z,99.99
2019-02-06T11:51:55.212Z,99.99
2019-02-06T11:52:55.265Z,99.99
2019-02-06T11:53:56.369Z,99.99
2019-02-06T11:54:56.579Z,99.99
2019-02-06T11:55:55.427Z,99.97
2019-02-06T11:57:37.916Z,98.64
2019-02-06T11:58:37.969Z,97.41
2019-02-06T11:59:38.024Z,97.41
2019-02-06T12:00:38.078Z,96.41
2019-02-06T12:01:38.131Z,94.46
2019-02-06T12:02:38.188Z,92.99
2019-02-06T12:03:38.241Z,92.61
2019-02-06T12:04:38.295Z,93.75
2019-02-06T12:05:38.349Z,94.27
2019-02-06T12:06:38.404Z,94.74
2019-02-06T12:07:38.462Z,95.79
2019-02-06T12:08:38.514Z,96.17
2019-02-06T12:09:38.567Z,97.03
2019-02-06T12:10:38.622Z,96.93
2019-02-06T12:11:38.677Z,96.36
2019-02-06T12:12:38.731Z,96.93
2019-02-06T12:13:38.786Z,96.98
2019-02-06T12:14:38.840Z,97.41
2019-02-06T12:15:38.895Z,96.74
2019-02-06T12:16:38.955Z,95.94
2019-02-06T12:17:39.003Z,94.98
2019-02-06T12:18:39.058Z,92.80
2019-02-06T12:19:39.114Z,92.36
2019-02-06T12:20:39.167Z,91.99
2019-02-06T12:21:39.221Z,90.28
2019-02-06T12:22:39.277Z,90.56
2019-02-06T12:23:39.329Z,91.08
2019-02-06T12:24:39.388Z,92.08
2019-02-06T12:25:39.438Z,93.41
2019-02-06T12:26:39.494Z,93.60
2019-02-06T12:27:39.548Z,94.37
2019-02-06T12:28:39.603Z,95.60
2019-02-06T12:29:39.656Z,94.56
2019-02-06T12:30:39.736Z,94.70
2019-02-06T12:31:39.765Z,92.80
2019-02-06T12:32:51.490Z,91.70
2019-02-06T12:33:39.875Z,90.03
2019-02-06T12:34:39.929Z,88.79
2019-02-06T12:35:39.984Z,86.55
2019-02-06T12:36:40.038Z,85.08
2019-02-06T12:37:40.092Z,82.98
2019-02-06T12:38:40.147Z,80.44
2019-02-06T12:39:40.200Z,79.30
2019-02-06T12:40:40.258Z,78.96
2019-02-06T12:41:40.310Z,77.62
2019-02-06T12:42:40.367Z,77.49
2019-02-06T12:43:41.066Z,77.78
2019-02-06T12:44:40.477Z,77.30
2019-02-06T12:45:40.533Z,78.16
2019-02-06T12:46:40.588Z,77.87
2019-02-06T12:47:40.644Z,77.40
2019-02-06T12:48:40.701Z,76.44
2019-02-06T12:49:40.758Z,76.16
2019-02-06T12:50:40.814Z,76.29
2019-02-06T12:51:40.869Z,75.34
2019-02-06T12:52:40.927Z,75.24
2019-02-06T12:53:40.983Z,74.61
2019-02-06T12:54:41.036Z,72.36